sensor_id;sensor_type;location;lat;lon;timestamp;P1;durP1;ratioP1;P2;durP2;ratioP2
25351;SDS011;13304;48.464;8.712;2022-08-19T00:00:20;13.77;;;11.70;;
25351;SDS011;13304;48.464;8.712;2022-08-19T00:02:46;15.35;;;13.02;;
25351;SDS011;13304;48.464;8.712;2022-08-19T00:05:13;14.30;;;12.80;;
25351;SDS011;13304;48.464;8.712;2022-08-19T00:07:42;15.80;;;12.65;;
25351;SDS011;13304;48.464;8.712;2022-08-19T00:10:09;14.80;;;12.68;;
25351;SDS011;13304;48.464;8.712;2022-08-19T00:12:36;14.55;;;12.05;;
25351;SDS011;13304;48.464;8.712;2022-08-19T00:15:04;15.90;;;13.10;;
25351;SDS011;13304;48.464;8.712;2022-08-19T00:17:31;16.08;;;12.35;;
25351;SDS011;13304;48.464;8.712;2022-08-19T00:19:57;17.08;;;12.52;;
25351;SDS011;13304;48.464;8.712;2022-08-19T00:22:23;14.93;;;12.45;;
25351;SDS011;13304;48.464;8.712;2022-08-19T00:24:48;20.92;;;13.43;;
25351;SDS011;13304;48.464;8.712;2022-08-19T00:27:14;17.95;;;13.18;;
25351;SDS011;13304;48.464;8.712;2022-08-19T00:29:41;16.02;;;12.70;;
25351;SDS011;13304;48.464;8.712;2022-08-19T00:32:07;16.13;;;13.00;;
25351;SDS011;13304;48.464;8.712;2022-08-19T00:34:32;15.52;;;12.98;;
25351;SDS011;13304;48.464;8.712;2022-08-19T00:37:01;15.47;;;12.80;;
25351;SDS011;13304;48.464;8.712;2022-08-19T00:39:26;17.77;;;13.80;;
25351;SDS011;13304;48.464;8.712;2022-08-19T00:41:52;15.50;;;13.18;;
25351;SDS011;13304;48.464;8.712;2022-08-19T00:44:23;17.20;;;13.65;;
25351;SDS011;13304;48.464;8.712;2022-08-19T00:46:51;17.00;;;13.70;;
25351;SDS011;13304;48.464;8.712;2022-08-19T00:51:51;18.17;;;13.80;;
25351;SDS011;13304;48.464;8.712;2022-08-19T00:54:22;15.32;;;13.55;;
25351;SDS011;13304;48.464;8.712;2022-08-19T00:56:49;18.20;;;13.88;;
25351;SDS011;13304;48.464;8.712;2022-08-19T00:59:16;22.02;;;14.93;;
25351;SDS011;13304;48.464;8.712;2022-08-19T01:01:44;19.98;;;14.52;;
25351;SDS011;13304;48.464;8.712;2022-08-19T01:04:11;19.48;;;14.40;;
25351;SDS011;13304;48.464;8.712;2022-08-19T01:06:38;18.58;;;14.57;;
25351;SDS011;13304;48.464;8.712;2022-08-19T01:09:06;18.67;;;14.35;;
25351;SDS011;13304;48.464;8.712;2022-08-19T01:11:34;21.00;;;15.23;;
25351;SDS011;13304;48.464;8.712;2022-08-19T01:14:03;20.65;;;16.13;;
25351;SDS011;13304;48.464;8.712;2022-08-19T01:16:30;19.15;;;15.65;;
25351;SDS011;13304;48.464;8.712;2022-08-19T01:18:57;19.25;;;15.60;;
25351;SDS011;13304;48.464;8.712;2022-08-19T01:21:33;19.17;;;16.38;;
25351;SDS011;13304;48.464;8.712;2022-08-19T01:24:05;18.95;;;15.90;;
25351;SDS011;13304;48.464;8.712;2022-08-19T01:26:31;22.23;;;16.15;;
25351;SDS011;13304;48.464;8.712;2022-08-19T01:29:07;18.15;;;15.65;;
25351;SDS011;13304;48.464;8.712;2022-08-19T01:31:33;23.45;;;16.48;;
25351;SDS011;13304;48.464;8.712;2022-08-19T01:34:00;21.58;;;15.80;;
25351;SDS011;13304;48.464;8.712;2022-08-19T01:36:29;24.13;;;17.20;;
25351;SDS011;13304;48.464;8.712;2022-08-19T01:38:57;22.80;;;16.83;;
25351;SDS011;13304;48.464;8.712;2022-08-19T01:41:25;20.70;;;16.33;;
25351;SDS011;13304;48.464;8.712;2022-08-19T01:43:52;20.55;;;16.55;;
25351;SDS011;13304;48.464;8.712;2022-08-19T01:46:18;19.80;;;16.35;;
25351;SDS011;13304;48.464;8.712;2022-08-19T01:48:48;20.48;;;16.08;;
25351;SDS011;13304;48.464;8.712;2022-08-19T01:51:14;21.17;;;16.52;;
25351;SDS011;13304;48.464;8.712;2022-08-19T01:53:45;19.52;;;15.57;;
25351;SDS011;13304;48.464;8.712;2022-08-19T01:56:13;19.10;;;14.73;;
25351;SDS011;13304;48.464;8.712;2022-08-19T01:58:40;17.77;;;15.23;;
25351;SDS011;13304;48.464;8.712;2022-08-19T02:01:11;18.05;;;14.80;;
25351;SDS011;13304;48.464;8.712;2022-08-19T02:03:43;22.52;;;15.18;;
25351;SDS011;13304;48.464;8.712;2022-08-19T02:06:09;18.88;;;14.95;;
25351;SDS011;13304;48.464;8.712;2022-08-19T02:08:35;21.77;;;15.65;;
25351;SDS011;13304;48.464;8.712;2022-08-19T02:11:02;22.20;;;16.13;;
25351;SDS011;13304;48.464;8.712;2022-08-19T02:13:30;21.83;;;16.30;;
25351;SDS011;13304;48.464;8.712;2022-08-19T02:15:56;22.95;;;16.35;;
25351;SDS011;13304;48.464;8.712;2022-08-19T02:18:22;21.58;;;16.45;;
25351;SDS011;13304;48.464;8.712;2022-08-19T02:20:48;23.00;;;17.02;;
25351;SDS011;13304;48.464;8.712;2022-08-19T02:23:15;23.90;;;17.20;;
25351;SDS011;13304;48.464;8.712;2022-08-19T02:25:43;21.63;;;17.25;;
25351;SDS011;13304;48.464;8.712;2022-08-19T02:28:10;25.67;;;18.15;;
25351;SDS011;13304;48.464;8.712;2022-08-19T02:30:36;23.50;;;18.27;;
25351;SDS011;13304;48.464;8.712;2022-08-19T02:33:03;24.15;;;18.52;;
25351;SDS011;13304;48.464;8.712;2022-08-19T02:35:29;25.33;;;19.13;;
25351;SDS011;13304;48.464;8.712;2022-08-19T02:37:55;24.33;;;19.55;;
25351;SDS011;13304;48.464;8.712;2022-08-19T02:40:49;25.58;;;18.80;;
25351;SDS011;13304;48.464;8.712;2022-08-19T02:43:19;25.50;;;19.20;;
25351;SDS011;13304;48.464;8.712;2022-08-19T02:45:46;26.02;;;19.98;;
25351;SDS011;13304;48.464;8.712;2022-08-19T02:48:17;24.42;;;18.45;;
25351;SDS011;13304;48.464;8.712;2022-08-19T02:50:44;25.13;;;19.65;;
25351;SDS011;13304;48.464;8.712;2022-08-19T02:53:11;26.25;;;20.27;;
25351;SDS011;13304;48.464;8.712;2022-08-19T02:55:44;30.95;;;22.40;;
25351;SDS011;13304;48.464;8.712;2022-08-19T02:58:11;29.52;;;21.15;;
25351;SDS011;13304;48.464;8.712;2022-08-19T03:00:41;28.10;;;20.55;;
25351;SDS011;13304;48.464;8.712;2022-08-19T03:03:15;26.83;;;20.23;;
25351;SDS011;13304;48.464;8.712;2022-08-19T03:05:45;26.35;;;20.83;;
25351;SDS011;13304;48.464;8.712;2022-08-19T03:08:11;28.05;;;20.40;;
25351;SDS011;13304;48.464;8.712;2022-08-19T03:10:45;24.40;;;19.90;;
25351;SDS011;13304;48.464;8.712;2022-08-19T03:13:13;26.73;;;20.00;;
25351;SDS011;13304;48.464;8.712;2022-08-19T03:15:45;30.75;;;20.55;;
25351;SDS011;13304;48.464;8.712;2022-08-19T03:18:12;25.65;;;20.25;;
25351;SDS011;13304;48.464;8.712;2022-08-19T03:20:40;24.10;;;18.67;;
25351;SDS011;13304;48.464;8.712;2022-08-19T03:23:10;29.77;;;20.23;;
25351;SDS011;13304;48.464;8.712;2022-08-19T03:25:41;25.42;;;20.38;;
25351;SDS011;13304;48.464;8.712;2022-08-19T03:28:12;25.05;;;20.27;;
25351;SDS011;13304;48.464;8.712;2022-08-19T03:30:40;26.98;;;21.10;;
25351;SDS011;13304;48.464;8.712;2022-08-19T03:33:08;24.70;;;19.73;;
25351;SDS011;13304;48.464;8.712;2022-08-19T03:35:35;27.85;;;21.05;;
25351;SDS011;13304;48.464;8.712;2022-08-19T03:38:04;26.95;;;20.33;;
25351;SDS011;13304;48.464;8.712;2022-08-19T03:40:31;29.85;;;21.27;;
25351;SDS011;13304;48.464;8.712;2022-08-19T03:42:59;29.27;;;22.23;;
25351;SDS011;13304;48.464;8.712;2022-08-19T03:45:25;27.50;;;20.73;;
25351;SDS011;13304;48.464;8.712;2022-08-19T03:47:52;31.23;;;21.52;;
25351;SDS011;13304;48.464;8.712;2022-08-19T03:50:18;29.17;;;21.55;;
25351;SDS011;13304;48.464;8.712;2022-08-19T03:52:48;31.27;;;22.52;;
25351;SDS011;13304;48.464;8.712;2022-08-19T03:55:15;31.90;;;22.50;;
25351;SDS011;13304;48.464;8.712;2022-08-19T03:57:42;31.17;;;22.40;;
25351;SDS011;13304;48.464;8.712;2022-08-19T04:00:08;30.48;;;22.38;;
25351;SDS011;13304;48.464;8.712;2022-08-19T04:02:35;29.42;;;22.73;;
25351;SDS011;13304;48.464;8.712;2022-08-19T04:05:00;30.02;;;21.70;;
25351;SDS011;13304;48.464;8.712;2022-08-19T04:07:26;27.40;;;21.23;;
25351;SDS011;13304;48.464;8.712;2022-08-19T04:09:52;27.42;;;21.25;;
25351;SDS011;13304;48.464;8.712;2022-08-19T04:12:18;29.00;;;21.70;;
25351;SDS011;13304;48.464;8.712;2022-08-19T04:14:45;29.45;;;21.65;;
25351;SDS011;13304;48.464;8.712;2022-08-19T04:17:11;32.75;;;21.80;;
25351;SDS011;13304;48.464;8.712;2022-08-19T04:19:38;31.98;;;23.33;;
25351;SDS011;13304;48.464;8.712;2022-08-19T04:22:04;30.98;;;22.63;;
25351;SDS011;13304;48.464;8.712;2022-08-19T04:24:30;32.15;;;24.05;;
25351;SDS011;13304;48.464;8.712;2022-08-19T04:26:58;37.88;;;23.90;;
25351;SDS011;13304;48.464;8.712;2022-08-19T04:29:28;31.67;;;23.65;;
25351;SDS011;13304;48.464;8.712;2022-08-19T04:31:55;31.77;;;22.98;;
25351;SDS011;13304;48.464;8.712;2022-08-19T04:34:25;31.55;;;23.90;;
25351;SDS011;13304;48.464;8.712;2022-08-19T04:36:53;32.42;;;23.30;;
25351;SDS011;13304;48.464;8.712;2022-08-19T04:39:21;31.88;;;23.45;;
25351;SDS011;13304;48.464;8.712;2022-08-19T04:42:13;32.50;;;23.60;;
25351;SDS011;13304;48.464;8.712;2022-08-19T04:44:59;33.95;;;24.27;;
25351;SDS011;13304;48.464;8.712;2022-08-19T04:47:25;31.27;;;24.15;;
25351;SDS011;13304;48.464;8.712;2022-08-19T04:49:51;33.70;;;25.40;;
25351;SDS011;13304;48.464;8.712;2022-08-19T04:52:17;33.22;;;24.25;;
25351;SDS011;13304;48.464;8.712;2022-08-19T04:54:43;35.95;;;24.48;;
25351;SDS011;13304;48.464;8.712;2022-08-19T04:57:08;31.60;;;24.00;;
25351;SDS011;13304;48.464;8.712;2022-08-19T04:59:35;33.92;;;25.48;;
25351;SDS011;13304;48.464;8.712;2022-08-19T05:02:02;32.67;;;24.85;;
25351;SDS011;13304;48.464;8.712;2022-08-19T05:04:29;34.20;;;25.67;;
25351;SDS011;13304;48.464;8.712;2022-08-19T05:06:56;36.63;;;25.75;;
25351;SDS011;13304;48.464;8.712;2022-08-19T05:09:23;33.78;;;25.92;;
25351;SDS011;13304;48.464;8.712;2022-08-19T05:11:49;36.15;;;25.38;;
25351;SDS011;13304;48.464;8.712;2022-08-19T05:14:18;34.60;;;24.42;;
25351;SDS011;13304;48.464;8.712;2022-08-19T05:16:46;32.90;;;25.83;;
25351;SDS011;13304;48.464;8.712;2022-08-19T05:19:11;34.80;;;25.33;;
25351;SDS011;13304;48.464;8.712;2022-08-19T05:21:56;35.28;;;24.83;;
25351;SDS011;13304;48.464;8.712;2022-08-19T05:24:40;36.47;;;26.05;;
25351;SDS011;13304;48.464;8.712;2022-08-19T05:27:05;34.90;;;24.75;;
25351;SDS011;13304;48.464;8.712;2022-08-19T05:29:32;35.88;;;25.88;;
25351;SDS011;13304;48.464;8.712;2022-08-19T05:32:03;35.13;;;25.48;;
25351;SDS011;13304;48.464;8.712;2022-08-19T05:34:30;34.65;;;26.05;;
25351;SDS011;13304;48.464;8.712;2022-08-19T05:36:58;33.33;;;25.35;;
25351;SDS011;13304;48.464;8.712;2022-08-19T05:39:27;30.25;;;25.05;;
25351;SDS011;13304;48.464;8.712;2022-08-19T05:41:56;35.30;;;26.00;;
25351;SDS011;13304;48.464;8.712;2022-08-19T05:44:24;33.35;;;25.08;;
25351;SDS011;13304;48.464;8.712;2022-08-19T05:46:50;33.97;;;25.20;;
25351;SDS011;13304;48.464;8.712;2022-08-19T05:49:18;33.45;;;25.77;;
25351;SDS011;13304;48.464;8.712;2022-08-19T05:51:44;36.03;;;26.15;;
25351;SDS011;13304;48.464;8.712;2022-08-19T05:54:10;33.17;;;24.92;;
25351;SDS011;13304;48.464;8.712;2022-08-19T05:56:38;34.50;;;25.77;;
25351;SDS011;13304;48.464;8.712;2022-08-19T05:59:08;34.60;;;25.67;;
25351;SDS011;13304;48.464;8.712;2022-08-19T06:01:40;36.20;;;26.10;;
25351;SDS011;13304;48.464;8.712;2022-08-19T06:04:07;30.10;;;23.85;;
25351;SDS011;13304;48.464;8.712;2022-08-19T06:06:33;33.55;;;24.50;;
25351;SDS011;13304;48.464;8.712;2022-08-19T06:09:01;32.88;;;24.75;;
25351;SDS011;13304;48.464;8.712;2022-08-19T06:11:39;31.83;;;24.67;;
25351;SDS011;13304;48.464;8.712;2022-08-19T06:14:09;31.73;;;24.15;;
25351;SDS011;13304;48.464;8.712;2022-08-19T06:16:39;30.67;;;23.70;;
25351;SDS011;13304;48.464;8.712;2022-08-19T06:19:07;30.80;;;23.50;;
25351;SDS011;13304;48.464;8.712;2022-08-19T06:21:36;29.65;;;23.88;;
25351;SDS011;13304;48.464;8.712;2022-08-19T06:24:06;32.55;;;25.52;;
25351;SDS011;13304;48.464;8.712;2022-08-19T06:26:34;34.40;;;25.55;;
25351;SDS011;13304;48.464;8.712;2022-08-19T06:29:04;33.53;;;25.58;;
25351;SDS011;13304;48.464;8.712;2022-08-19T06:31:33;30.60;;;24.05;;
25351;SDS011;13304;48.464;8.712;2022-08-19T06:34:03;33.65;;;24.88;;
25351;SDS011;13304;48.464;8.712;2022-08-19T06:36:38;34.63;;;25.08;;
25351;SDS011;13304;48.464;8.712;2022-08-19T06:39:17;33.72;;;24.65;;
25351;SDS011;13304;48.464;8.712;2022-08-19T06:41:45;33.35;;;24.95;;
25351;SDS011;13304;48.464;8.712;2022-08-19T06:44:13;33.95;;;25.25;;
25351;SDS011;13304;48.464;8.712;2022-08-19T06:46:40;34.72;;;24.67;;
25351;SDS011;13304;48.464;8.712;2022-08-19T06:49:06;31.02;;;24.65;;
25351;SDS011;13304;48.464;8.712;2022-08-19T06:51:38;32.03;;;25.00;;
25351;SDS011;13304;48.464;8.712;2022-08-19T06:54:05;32.15;;;24.58;;
25351;SDS011;13304;48.464;8.712;2022-08-19T06:56:31;31.85;;;25.13;;
25351;SDS011;13304;48.464;8.712;2022-08-19T06:59:00;33.03;;;24.88;;
25351;SDS011;13304;48.464;8.712;2022-08-19T07:01:34;29.50;;;24.33;;
25351;SDS011;13304;48.464;8.712;2022-08-19T07:04:05;29.13;;;23.13;;
25351;SDS011;13304;48.464;8.712;2022-08-19T07:06:32;32.28;;;25.50;;
25351;SDS011;13304;48.464;8.712;2022-08-19T07:08:58;28.17;;;21.88;;
25351;SDS011;13304;48.464;8.712;2022-08-19T07:11:26;29.38;;;23.38;;
25351;SDS011;13304;48.464;8.712;2022-08-19T07:13:52;26.88;;;22.73;;
25351;SDS011;13304;48.464;8.712;2022-08-19T07:16:19;29.45;;;22.65;;
25351;SDS011;13304;48.464;8.712;2022-08-19T07:18:46;28.98;;;21.75;;
25351;SDS011;13304;48.464;8.712;2022-08-19T07:21:15;32.20;;;24.17;;
25351;SDS011;13304;48.464;8.712;2022-08-19T07:23:46;26.20;;;22.55;;
25351;SDS011;13304;48.464;8.712;2022-08-19T07:26:20;28.02;;;22.38;;
25351;SDS011;13304;48.464;8.712;2022-08-19T07:28:51;29.85;;;22.63;;
25351;SDS011;13304;48.464;8.712;2022-08-19T07:31:21;29.67;;;22.95;;
25351;SDS011;13304;48.464;8.712;2022-08-19T07:33:52;29.67;;;22.58;;
25351;SDS011;13304;48.464;8.712;2022-08-19T07:36:24;28.98;;;21.95;;
25351;SDS011;13304;48.464;8.712;2022-08-19T07:38:57;26.92;;;21.92;;
25351;SDS011;13304;48.464;8.712;2022-08-19T07:41:25;31.55;;;22.92;;
25351;SDS011;13304;48.464;8.712;2022-08-19T07:43:54;29.65;;;22.27;;
25351;SDS011;13304;48.464;8.712;2022-08-19T07:46:20;32.90;;;23.33;;
25351;SDS011;13304;48.464;8.712;2022-08-19T07:48:47;27.25;;;21.88;;
25351;SDS011;13304;48.464;8.712;2022-08-19T07:51:16;29.40;;;22.42;;
25351;SDS011;13304;48.464;8.712;2022-08-19T07:53:46;28.35;;;22.33;;
25351;SDS011;13304;48.464;8.712;2022-08-19T07:56:17;26.08;;;21.83;;
25351;SDS011;13304;48.464;8.712;2022-08-19T07:58:46;25.77;;;21.67;;
25351;SDS011;13304;48.464;8.712;2022-08-19T08:01:17;26.08;;;20.85;;
25351;SDS011;13304;48.464;8.712;2022-08-19T08:03:47;24.90;;;21.42;;
25351;SDS011;13304;48.464;8.712;2022-08-19T08:06:34;26.75;;;20.95;;
25351;SDS011;13304;48.464;8.712;2022-08-19T08:09:32;26.52;;;20.60;;
25351;SDS011;13304;48.464;8.712;2022-08-19T08:12:03;26.58;;;20.48;;
25351;SDS011;13304;48.464;8.712;2022-08-19T08:14:36;22.33;;;19.80;;
25351;SDS011;13304;48.464;8.712;2022-08-19T08:17:07;28.33;;;21.73;;
25351;SDS011;13304;48.464;8.712;2022-08-19T08:19:37;24.08;;;19.77;;
25351;SDS011;13304;48.464;8.712;2022-08-19T08:22:06;23.45;;;18.73;;
25351;SDS011;13304;48.464;8.712;2022-08-19T08:24:33;22.08;;;18.60;;
25351;SDS011;13304;48.464;8.712;2022-08-19T08:27:00;28.15;;;18.75;;
25351;SDS011;13304;48.464;8.712;2022-08-19T08:29:26;21.13;;;16.70;;
25351;SDS011;13304;48.464;8.712;2022-08-19T08:31:54;21.80;;;17.60;;
25351;SDS011;13304;48.464;8.712;2022-08-19T08:34:21;21.80;;;16.60;;
25351;SDS011;13304;48.464;8.712;2022-08-19T08:36:47;22.02;;;16.30;;
25351;SDS011;13304;48.464;8.712;2022-08-19T08:39:16;17.38;;;14.35;;
25351;SDS011;13304;48.464;8.712;2022-08-19T08:44:31;16.60;;;13.57;;
25351;SDS011;13304;48.464;8.712;2022-08-19T08:47:01;14.80;;;12.32;;
25351;SDS011;13304;48.464;8.712;2022-08-19T08:54:31;15.02;;;11.77;;
25351;SDS011;13304;48.464;8.712;2022-08-19T08:57:02;18.58;;;12.57;;
25351;SDS011;13304;48.464;8.712;2022-08-19T08:59:34;15.30;;;11.63;;
25351;SDS011;13304;48.464;8.712;2022-08-19T09:02:04;16.00;;;11.40;;
25351;SDS011;13304;48.464;8.712;2022-08-19T09:04:30;17.25;;;12.55;;
25351;SDS011;13304;48.464;8.712;2022-08-19T09:07:01;14.15;;;11.02;;
25351;SDS011;13304;48.464;8.712;2022-08-19T09:09:39;15.57;;;11.38;;
25351;SDS011;13304;48.464;8.712;2022-08-19T09:14:53;12.73;;;10.10;;
25351;SDS011;13304;48.464;8.712;2022-08-19T09:17:27;13.80;;;10.15;;
25351;SDS011;13304;48.464;8.712;2022-08-19T09:22:43;15.60;;;10.52;;
25351;SDS011;13304;48.464;8.712;2022-08-19T09:25:10;15.40;;;10.82;;
25351;SDS011;13304;48.464;8.712;2022-08-19T09:30:06;13.27;;;9.88;;
25351;SDS011;13304;48.464;8.712;2022-08-19T09:32:34;12.70;;;9.80;;
25351;SDS011;13304;48.464;8.712;2022-08-19T09:35:02;11.18;;;9.27;;
25351;SDS011;13304;48.464;8.712;2022-08-19T09:37:28;12.68;;;9.27;;
25351;SDS011;13304;48.464;8.712;2022-08-19T09:39:54;11.82;;;9.63;;
25351;SDS011;13304;48.464;8.712;2022-08-19T09:42:20;14.75;;;10.07;;
25351;SDS011;13304;48.464;8.712;2022-08-19T09:44:46;10.23;;;8.73;;
25351;SDS011;13304;48.464;8.712;2022-08-19T09:47:13;15.93;;;9.05;;
25351;SDS011;13304;48.464;8.712;2022-08-19T09:49:40;10.63;;;9.07;;
25351;SDS011;13304;48.464;8.712;2022-08-19T09:52:07;10.98;;;9.13;;
25351;SDS011;13304;48.464;8.712;2022-08-19T09:57:00;9.57;;;8.57;;
25351;SDS011;13304;48.464;8.712;2022-08-19T09:59:26;10.82;;;9.10;;
25351;SDS011;13304;48.464;8.712;2022-08-19T10:01:53;11.98;;;8.73;;
25351;SDS011;13304;48.464;8.712;2022-08-19T10:04:19;13.00;;;9.55;;
25351;SDS011;13304;48.464;8.712;2022-08-19T10:06:47;14.23;;;8.90;;
25351;SDS011;13304;48.464;8.712;2022-08-19T10:09:15;10.90;;;8.45;;
25351;SDS011;13304;48.464;8.712;2022-08-19T10:11:43;11.77;;;7.85;;
25351;SDS011;13304;48.464;8.712;2022-08-19T10:14:14;9.93;;;8.27;;
25351;SDS011;13304;48.464;8.712;2022-08-19T10:16:41;8.30;;;7.38;;
25351;SDS011;13304;48.464;8.712;2022-08-19T10:19:08;8.68;;;7.45;;
25351;SDS011;13304;48.464;8.712;2022-08-19T10:21:34;17.73;;;7.53;;
25351;SDS011;13304;48.464;8.712;2022-08-19T10:24:01;7.70;;;6.90;;
25351;SDS011;13304;48.464;8.712;2022-08-19T10:26:36;8.30;;;6.53;;
25351;SDS011;13304;48.464;8.712;2022-08-19T10:29:04;7.28;;;6.57;;
25351;SDS011;13304;48.464;8.712;2022-08-19T10:31:31;7.82;;;6.97;;
25351;SDS011;13304;48.464;8.712;2022-08-19T10:33:59;7.53;;;6.80;;
25351;SDS011;13304;48.464;8.712;2022-08-19T10:36:26;7.82;;;6.70;;
25351;SDS011;13304;48.464;8.712;2022-08-19T10:38:58;8.77;;;7.35;;
25351;SDS011;13304;48.464;8.712;2022-08-19T10:41:27;9.68;;;7.00;;
25351;SDS011;13304;48.464;8.712;2022-08-19T10:43:55;7.60;;;6.07;;
25351;SDS011;13304;48.464;8.712;2022-08-19T10:46:30;7.07;;;5.88;;
25351;SDS011;13304;48.464;8.712;2022-08-19T10:48:58;7.88;;;6.18;;
25351;SDS011;13304;48.464;8.712;2022-08-19T10:51:26;7.90;;;6.28;;
25351;SDS011;13304;48.464;8.712;2022-08-19T10:54:12;9.35;;;6.10;;
25351;SDS011;13304;48.464;8.712;2022-08-19T10:56:38;9.57;;;5.63;;
25351;SDS011;13304;48.464;8.712;2022-08-19T10:59:24;7.40;;;6.38;;
25351;SDS011;13304;48.464;8.712;2022-08-19T11:01:53;10.50;;;6.60;;
25351;SDS011;13304;48.464;8.712;2022-08-19T11:04:26;10.68;;;6.03;;
25351;SDS011;13304;48.464;8.712;2022-08-19T11:06:52;7.97;;;5.97;;
25351;SDS011;13304;48.464;8.712;2022-08-19T11:09:20;7.18;;;5.70;;
25351;SDS011;13304;48.464;8.712;2022-08-19T11:11:51;7.28;;;6.05;;
25351;SDS011;13304;48.464;8.712;2022-08-19T11:14:21;6.97;;;6.20;;
25351;SDS011;13304;48.464;8.712;2022-08-19T11:16:48;6.88;;;6.05;;
25351;SDS011;13304;48.464;8.712;2022-08-19T11:19:15;7.50;;;6.00;;
25351;SDS011;13304;48.464;8.712;2022-08-19T11:21:46;7.07;;;6.38;;
25351;SDS011;13304;48.464;8.712;2022-08-19T11:24:15;8.37;;;6.53;;
25351;SDS011;13304;48.464;8.712;2022-08-19T11:26:45;8.88;;;7.10;;
25351;SDS011;13304;48.464;8.712;2022-08-19T11:29:14;9.27;;;7.70;;
25351;SDS011;13304;48.464;8.712;2022-08-19T11:31:42;8.70;;;7.05;;
25351;SDS011;13304;48.464;8.712;2022-08-19T11:34:11;8.03;;;7.17;;
25351;SDS011;13304;48.464;8.712;2022-08-19T11:36:40;8.65;;;6.75;;
25351;SDS011;13304;48.464;8.712;2022-08-19T11:39:08;9.38;;;6.63;;
25351;SDS011;13304;48.464;8.712;2022-08-19T11:41:35;9.65;;;6.72;;
25351;SDS011;13304;48.464;8.712;2022-08-19T11:44:01;8.55;;;6.20;;
25351;SDS011;13304;48.464;8.712;2022-08-19T11:46:28;6.95;;;5.70;;
25351;SDS011;13304;48.464;8.712;2022-08-19T11:48:57;11.13;;;5.70;;
25351;SDS011;13304;48.464;8.712;2022-08-19T11:51:24;7.50;;;5.78;;
25351;SDS011;13304;48.464;8.712;2022-08-19T11:53:51;7.18;;;5.68;;
25351;SDS011;13304;48.464;8.712;2022-08-19T11:56:21;6.72;;;5.60;;
25351;SDS011;13304;48.464;8.712;2022-08-19T11:58:50;7.75;;;6.07;;
25351;SDS011;13304;48.464;8.712;2022-08-19T12:01:17;10.02;;;6.65;;
25351;SDS011;13304;48.464;8.712;2022-08-19T12:03:45;5.90;;;5.25;;
25351;SDS011;13304;48.464;8.712;2022-08-19T12:06:13;9.30;;;6.38;;
25351;SDS011;13304;48.464;8.712;2022-08-19T12:08:41;8.35;;;6.72;;
25351;SDS011;13304;48.464;8.712;2022-08-19T12:11:09;9.18;;;7.65;;
25351;SDS011;13304;48.464;8.712;2022-08-19T12:13:36;12.45;;;8.07;;
25351;SDS011;13304;48.464;8.712;2022-08-19T12:16:14;8.20;;;7.40;;
25351;SDS011;13304;48.464;8.712;2022-08-19T12:18:42;8.35;;;7.45;;
25351;SDS011;13304;48.464;8.712;2022-08-19T12:21:11;8.82;;;7.78;;
25351;SDS011;13304;48.464;8.712;2022-08-19T12:23:41;8.73;;;7.22;;
25351;SDS011;13304;48.464;8.712;2022-08-19T12:26:09;8.25;;;7.13;;
25351;SDS011;13304;48.464;8.712;2022-08-19T12:28:38;8.38;;;6.93;;
25351;SDS011;13304;48.464;8.712;2022-08-19T12:31:04;10.88;;;7.60;;
25351;SDS011;13304;48.464;8.712;2022-08-19T12:33:31;7.57;;;6.75;;
25351;SDS011;13304;48.464;8.712;2022-08-19T12:36:00;7.43;;;6.50;;
25351;SDS011;13304;48.464;8.712;2022-08-19T12:38:28;11.43;;;7.75;;
25351;SDS011;13304;48.464;8.712;2022-08-19T12:40:54;9.50;;;6.78;;
25351;SDS011;13304;48.464;8.712;2022-08-19T12:43:20;8.38;;;6.72;;
25351;SDS011;13304;48.464;8.712;2022-08-19T12:45:46;11.10;;;7.53;;
25351;SDS011;13304;48.464;8.712;2022-08-19T12:48:12;8.63;;;7.28;;
25351;SDS011;13304;48.464;8.712;2022-08-19T12:50:39;8.38;;;7.57;;
25351;SDS011;13304;48.464;8.712;2022-08-19T12:53:10;7.70;;;6.90;;
25351;SDS011;13304;48.464;8.712;2022-08-19T12:55:39;10.05;;;6.78;;
25351;SDS011;13304;48.464;8.712;2022-08-19T12:58:06;8.35;;;6.85;;
25351;SDS011;13304;48.464;8.712;2022-08-19T13:00:31;7.05;;;6.22;;
25351;SDS011;13304;48.464;8.712;2022-08-19T13:03:00;7.03;;;5.90;;
25351;SDS011;13304;48.464;8.712;2022-08-19T13:05:27;8.10;;;6.57;;
25351;SDS011;13304;48.464;8.712;2022-08-19T13:07:55;7.07;;;6.10;;
25351;SDS011;13304;48.464;8.712;2022-08-19T13:10:22;6.72;;;5.97;;
25351;SDS011;13304;48.464;8.712;2022-08-19T13:12:52;8.18;;;6.75;;
25351;SDS011;13304;48.464;8.712;2022-08-19T13:15:19;10.40;;;6.68;;
25351;SDS011;13304;48.464;8.712;2022-08-19T13:17:48;9.65;;;7.20;;
25351;SDS011;13304;48.464;8.712;2022-08-19T13:20:16;8.27;;;7.38;;
25351;SDS011;13304;48.464;8.712;2022-08-19T13:22:46;8.98;;;6.70;;
25351;SDS011;13304;48.464;8.712;2022-08-19T13:25:15;8.75;;;7.05;;
25351;SDS011;13304;48.464;8.712;2022-08-19T13:27:42;8.63;;;6.95;;
25351;SDS011;13304;48.464;8.712;2022-08-19T13:30:09;8.05;;;6.65;;
25351;SDS011;13304;48.464;8.712;2022-08-19T13:32:55;8.90;;;8.00;;
25351;SDS011;13304;48.464;8.712;2022-08-19T13:38:25;13.02;;;7.68;;
25351;SDS011;13304;48.464;8.712;2022-08-19T13:40:52;8.43;;;7.10;;
25351;SDS011;13304;48.464;8.712;2022-08-19T13:43:22;8.60;;;7.55;;
25351;SDS011;13304;48.464;8.712;2022-08-19T13:45:51;9.20;;;7.75;;
25351;SDS011;13304;48.464;8.712;2022-08-19T13:48:20;8.00;;;7.20;;
25351;SDS011;13304;48.464;8.712;2022-08-19T13:50:47;9.38;;;8.00;;
25351;SDS011;13304;48.464;8.712;2022-08-19T13:53:13;10.07;;;8.00;;
25351;SDS011;13304;48.464;8.712;2022-08-19T13:55:40;9.05;;;7.57;;
25351;SDS011;13304;48.464;8.712;2022-08-19T13:58:07;8.93;;;7.55;;
25351;SDS011;13304;48.464;8.712;2022-08-19T14:00:36;9.07;;;7.00;;
25351;SDS011;13304;48.464;8.712;2022-08-19T14:03:04;11.07;;;7.70;;
25351;SDS011;13304;48.464;8.712;2022-08-19T14:05:31;7.72;;;6.93;;
25351;SDS011;13304;48.464;8.712;2022-08-19T14:07:57;9.23;;;7.85;;
25351;SDS011;13304;48.464;8.712;2022-08-19T14:10:24;8.63;;;7.03;;
25351;SDS011;13304;48.464;8.712;2022-08-19T14:12:55;8.20;;;6.78;;
25351;SDS011;13304;48.464;8.712;2022-08-19T14:15:23;7.95;;;7.15;;
25351;SDS011;13304;48.464;8.712;2022-08-19T14:17:50;7.57;;;6.75;;
25351;SDS011;13304;48.464;8.712;2022-08-19T14:20:19;11.88;;;7.55;;
25351;SDS011;13304;48.464;8.712;2022-08-19T14:22:48;8.05;;;6.85;;
25351;SDS011;13304;48.464;8.712;2022-08-19T14:25:17;7.97;;;6.43;;
25351;SDS011;13304;48.464;8.712;2022-08-19T14:27:45;6.57;;;5.80;;
25351;SDS011;13304;48.464;8.712;2022-08-19T14:30:12;8.77;;;6.72;;
25351;SDS011;13304;48.464;8.712;2022-08-19T14:32:40;7.25;;;6.18;;
25351;SDS011;13304;48.464;8.712;2022-08-19T14:35:08;8.23;;;6.22;;
25351;SDS011;13304;48.464;8.712;2022-08-19T14:37:35;7.75;;;6.45;;
25351;SDS011;13304;48.464;8.712;2022-08-19T14:40:01;7.90;;;6.00;;
25351;SDS011;13304;48.464;8.712;2022-08-19T14:42:28;6.82;;;6.13;;
25351;SDS011;13304;48.464;8.712;2022-08-19T14:44:57;7.32;;;6.20;;
25351;SDS011;13304;48.464;8.712;2022-08-19T14:49:49;7.70;;;5.90;;
25351;SDS011;13304;48.464;8.712;2022-08-19T14:52:18;6.93;;;5.65;;
25351;SDS011;13304;48.464;8.712;2022-08-19T14:54:45;7.93;;;6.45;;
25351;SDS011;13304;48.464;8.712;2022-08-19T14:57:12;7.13;;;6.30;;
25351;SDS011;13304;48.464;8.712;2022-08-19T14:59:41;6.85;;;6.13;;
25351;SDS011;13304;48.464;8.712;2022-08-19T15:02:08;6.97;;;6.28;;
25351;SDS011;13304;48.464;8.712;2022-08-19T15:04:34;6.22;;;5.63;;